モントリオール/トルドー の空港の天気 - METARとTAF

モントリオール・ピエール・エリオット・トルドー国際空港 ( CYUL / YUL ) - カナダ ケベック州モントリオール
飛行場実況気象(Metar)
観測時間04/25 10:00 EDT (04/25 14:00 UTC)
風向・風速南東 5m/s
視程10km以上
天気現象弱い雨
少しの雲 雲底高度 1220m
全天の8割程度の雲 雲底高度 2290m
全天を覆う雲 雲底高度 3660m
気温13℃
湿度77%
気圧1016.3hPa
METARCYUL 251400Z 13009KT 15SM -RA FEW040 BKN075 OVC120 13/09 A3001 RMK SC1AC6AS1 SLP163
過去の天気等 Google飛行場航空写真 Wunderground天気予報

過去48時間のMETAR

飛行場予報(TAF)
発表時間: 4/25 10:39 EDT (4/25 14:39 UTC)
予報対象時間: 25日11時 EDT ~ 26日8時 EDT
風向・風速南東 5m/s
視程10km以上
天気現象弱い雨
全天の4割程度の雲 雲底高度 910m
全天を覆う雲 雲底高度 1,520m
25日14時 EDT から
風向・風速東南東 5m/s
視程10km以上
天気現象弱い雨
全天の4割程度の雲 雲底高度 460m
全天を覆う雲 雲底高度 760m
25日14時 EDT ~ 25日16時 EDT に一時的に
視程8,050m
天気現象弱い雨 もや
全天の8割程度の雲 雲底高度 460m
全天を覆う雲 雲底高度 760m
25日16時 EDT から
風向・風速東北東 5m/s
視程4,830m
天気現象弱い雨 もや
全天の8割程度の雲 雲底高度 240m
全天を覆う雲 雲底高度 370m
25日16時 EDT ~ 25日19時 EDT に一時的に
視程10km以上
天気現象弱い雨 もや
全天の4割程度の雲 雲底高度 240m
全天を覆う雲 雲底高度 460m
25日20時 EDT から
風向・風速北東 5m/s
視程3,220m
天気現象弱い雨 もや
全天を覆う雲 雲底高度 150m
26日2時 EDT から
風向・風速北東 4m/s
視程6,440m
天気現象弱い霧雨 弱い雨 もや
全天の8割程度の雲 雲底高度 120m
全天を覆う雲 雲底高度 460m
26日6時 EDT から
風向・風速北北東 5m/s
視程3,220m
天気現象弱い雨 もや
全天の8割程度の雲 雲底高度 120m
全天を覆う雲 雲底高度 370m
TAF CYUL 251439Z 2515/2612 13010KT P6SM -RA SCT030 OVC050
FM251800 11010KT P6SM -RA SCT015 OVC025
TEMPO 2518/2520 5SM -RA BR BKN015 OVC025
FM252000 06010KT 3SM -RA BR BKN008 OVC012
TEMPO 2520/2523 6SM -RA BR SCT008 OVC015
FM260000 05010KT 2SM -RA BR OVC005
FM260600 05008KT 4SM -DZ -RA BR BKN004 OVC015
FM261000 03010KT 2SM -RA BR BKN004 OVC012 RMK NXT FCST BY 251800Z